Time;durP1;ratioP1;P1;durP2;ratioP2;P2;SDS_P1;SDS_P2;PMS_P1;PMS_P2;Temp;Humidity;BMP_temperature;BMP_pressure;BME280_temperature;BME280_humidity;BME280_pressure;Samples;Min_cycle;Max_cycle;Signal;HPM_P1;HPM_P2
2023/05/15 00:01:10;;;;;;;12.60;11.40;;;;;;;10.42;100.00;95858.88;5062184;27;102865;-61
2023/05/15 00:03:45;;;;;;;11.83;10.70;;;;;;;10.34;100.00;95852.19;5069854;27;101907;-61
2023/05/15 00:06:12;;;;;;;12.10;11.00;;;;;;;10.32;100.00;95853.53;5068536;27;103778;-61
2023/05/15 00:08:39;;;;;;;12.90;11.73;;;;;;;10.32;100.00;95843.69;5068192;27;105508;-61
2023/05/15 00:11:06;;;;;;;12.43;11.30;;;;;;;10.30;100.00;95845.81;5055903;27;101861;-61
2023/05/15 00:13:37;;;;;;;12.67;11.47;;;;;;;10.38;100.00;95852.47;5049512;27;102922;-61
2023/05/15 00:16:07;;;;;;;11.67;10.67;;;;;;;10.43;100.00;95844.50;5067754;27;105455;-61
2023/05/15 00:18:34;;;;;;;11.70;10.70;;;;;;;10.38;100.00;95847.97;5055128;27;105693;-61
2023/05/15 00:21:01;;;;;;;12.77;11.47;;;;;;;10.40;100.00;95845.84;5056361;27;104203;-61
2023/05/15 00:23:27;;;;;;;12.60;11.30;;;;;;;10.40;100.00;95843.19;5047830;27;102561;-61
2023/05/15 00:25:54;;;;;;;13.40;12.10;;;;;;;10.39;100.00;95846.09;5048127;27;103577;-61
2023/05/15 00:28:21;;;;;;;14.20;12.80;;;;;;;10.41;100.00;95851.97;5046471;27;105427;-61
2023/05/15 00:30:48;;;;;;;14.30;12.90;;;;;;;10.31;100.00;95852.72;5056883;27;102010;-61
2023/05/15 00:33:28;;;;;;;13.40;11.90;;;;;;;10.39;100.00;95854.06;5067530;27;104846;-61
2023/05/15 00:35:55;;;;;;;12.40;11.20;;;;;;;10.33;100.00;95852.47;5067959;27;103986;-61
2023/05/15 00:38:23;;;;;;;12.40;11.20;;;;;;;10.38;100.00;95852.47;5071471;27;102281;-61
2023/05/15 00:40:52;;;;;;;12.70;11.33;;;;;;;10.40;100.00;95851.16;5058428;27;105965;-61
2023/05/15 00:43:26;;;;;;;11.67;10.57;;;;;;;10.41;100.00;95841.34;5049242;27;101852;-61
2023/05/15 00:45:54;;;;;;;12.97;11.77;;;;;;;10.35;100.00;95843.16;5049148;27;105178;-61
2023/05/15 00:48:24;;;;;;;12.23;11.03;;;;;;;10.27;100.00;95845.53;5067391;27;105467;-61
2023/05/15 00:50:53;;;;;;;13.20;11.47;;;;;;;10.30;100.00;95840.50;5060385;27;101930;-61
2023/05/15 00:53:24;;;;;;;11.93;10.73;;;;;;;10.40;100.00;95839.72;5047529;27;105290;-61
2023/05/15 00:55:52;;;;;;;13.27;11.97;;;;;;;10.38;100.00;95837.34;5048713;27;103144;-61
2023/05/15 00:58:22;;;;;;;13.20;11.90;;;;;;;10.46;100.00;95839.47;5047809;27;101923;-61
2023/05/15 01:00:53;;;;;;;11.80;10.60;;;;;;;10.49;100.00;95832.84;5060693;27;102797;-61
2023/05/15 01:06:44;;;;;;;11.17;10.07;;;;;;;10.51;100.00;95833.34;5066830;27;102237;-61
2023/05/15 01:09:14;;;;;;;10.17;9.27;;;;;;;10.53;100.00;95833.91;5052008;27;105456;-61
2023/05/15 01:11:42;;;;;;;10.00;9.10;;;;;;;10.48;100.00;95829.34;5068534;27;101895;-61
2023/05/15 01:14:52;;;;;;;10.60;9.63;;;;;;;10.52;100.00;95832.31;5064889;27;103076;-61
2023/05/15 01:17:19;;;;;;;10.67;9.67;;;;;;;10.47;100.00;95833.09;5053652;27;105874;-61
2023/05/15 01:19:49;;;;;;;10.70;9.60;;;;;;;10.52;100.00;95827.78;5058484;27;101895;-61
2023/05/15 01:22:34;;;;;;;10.80;9.80;;;;;;;10.54;100.00;95830.19;5048137;27;105602;-61
2023/05/15 01:25:53;;;;;;;10.83;9.73;;;;;;;10.47;100.00;95829.66;5050871;27;101814;-61
2023/05/15 01:28:30;;;;;;;10.67;9.50;;;;;;;10.36;100.00;95833.34;4984190;28;105651;-61
2023/05/15 01:31:04;;;;;;;10.53;9.43;;;;;;;10.32;100.00;95827.75;5058779;27;102560;-61
2023/05/15 01:33:43;;;;;;;9.50;8.60;;;;;;;10.42;100.00;95827.75;5065511;27;102187;-61
2023/05/15 01:36:15;;;;;;;10.37;9.33;;;;;;;10.44;100.00;95830.16;5049656;27;105200;-61
2023/05/15 01:38:47;;;;;;;12.77;10.30;;;;;;;10.47;100.00;95829.66;5053742;27;103027;-61
2023/05/15 01:41:19;;;;;;;10.90;9.90;;;;;;;10.54;100.00;95840.81;5052342;27;101826;-61
2023/05/15 01:44:22;;;;;;;12.23;10.77;;;;;;;10.48;100.00;95834.69;5054035;27;105137;-61
2023/05/15 01:46:52;;;;;;;14.43;11.03;;;;;;;10.40;100.00;95829.06;5062543;27;105355;-61
2023/05/15 01:49:23;;;;;;;12.83;10.97;;;;;;;10.42;100.00;95837.59;5050571;27;105083;-61
2023/05/15 01:51:55;;;;;;;11.97;10.63;;;;;;;10.40;100.00;95829.88;5056967;27;105404;-61
2023/05/15 01:54:25;;;;;;;11.70;10.43;;;;;;;10.31;100.00;95836.75;5050242;27;101824;-61
2023/05/15 01:56:52;;;;;;;13.03;11.63;;;;;;;10.34;100.00;95833.59;5050881;27;104111;-61
2023/05/15 01:59:21;;;;;;;11.13;10.03;;;;;;;10.44;100.00;95832.81;5049775;27;105803;-61
2023/05/15 02:01:50;;;;;;;11.83;10.63;;;;;;;10.43;100.00;95833.88;5060705;27;101893;-61
2023/05/15 02:04:38;;;;;;;11.30;10.20;;;;;;;10.47;100.00;95829.66;5053660;27;102848;-61
2023/05/15 02:07:06;;;;;;;11.43;10.27;;;;;;;10.45;100.00;95831.75;5061995;27;105503;-61
2023/05/15 02:09:35;;;;;;;11.57;10.40;;;;;;;10.46;100.00;95828.84;5069605;27;101970;-61
2023/05/15 02:12:03;;;;;;;11.63;10.53;;;;;;;10.42;100.00;95826.97;5049681;27;105609;-61
2023/05/15 02:14:32;;;;;;;12.27;11.07;;;;;;;10.49;100.00;95827.50;5069587;27;102156;-61
2023/05/15 02:16:59;;;;;;;12.03;10.83;;;;;;;10.42;100.00;95838.38;5051639;27;102324;-61
2023/05/15 02:19:27;;;;;;;12.27;11.07;;;;;;;10.33;100.00;95828.53;5066713;27;102127;-61
2023/05/15 02:21:54;;;;;;;12.50;11.30;;;;;;;10.42;100.00;95827.75;5070576;27;102278;-61
2023/05/15 02:24:31;;;;;;;11.83;10.63;;;;;;;10.38;100.00;95824.03;5051159;27;105130;-61
2023/05/15 02:27:04;;;;;;;12.00;10.80;;;;;;;10.46;100.00;95823.53;5049507;27;105164;-61
2023/05/15 02:29:39;;;;;;;11.50;10.40;;;;;;;10.33;100.00;95824.03;5070839;27;102037;-61
2023/05/15 02:32:14;;;;;;;11.97;10.77;;;;;;;10.36;100.00;95828.03;5073257;27;104799;-61
2023/05/15 02:34:55;;;;;;;11.77;10.67;;;;;;;10.46;100.00;95825.41;5070362;27;101860;-61
2023/05/15 02:37:27;;;;;;;12.63;11.33;;;;;;;10.40;100.00;95819.25;5067504;27;105836;-61
2023/05/15 02:39:58;;;;;;;12.27;11.07;;;;;;;10.28;100.00;95815.22;5049083;27;105215;-61
2023/05/15 02:42:26;;;;;;;12.33;10.77;;;;;;;10.29;100.00;95814.16;5050697;27;102357;-61
2023/05/15 02:44:58;;;;;;;12.63;11.33;;;;;;;10.29;100.00;95822.13;5049367;27;105589;-61
2023/05/15 02:47:25;;;;;;;12.77;11.27;;;;;;;10.25;100.00;95816.56;5050090;27;105436;-61
2023/05/15 02:49:53;;;;;;;12.97;11.67;;;;;;;10.27;100.00;95819.78;5049541;27;101879;-61
2023/05/15 02:52:20;;;;;;;11.83;10.60;;;;;;;10.28;100.00;95810.72;5050840;27;105603;-61
2023/05/15 02:55:05;;;;;;;12.43;11.23;;;;;;;10.46;100.00;95817.41;5072849;27;105355;-61
2023/05/15 02:57:32;;;;;;;12.70;11.40;;;;;;;10.40;100.00;95818.44;5066280;27;105201;-61
2023/05/15 03:00:04;;;;;;;12.90;11.60;;;;;;;10.40;100.00;95813.13;5048716;27;105444;-61
2023/05/15 03:02:31;;;;;;;13.43;12.00;;;;;;;10.46;100.00;95820.09;5052202;27;102007;-61
2023/05/15 03:04:58;;;;;;;12.77;11.50;;;;;;;10.47;100.00;95817.13;5069770;27;103912;-61
2023/05/15 03:07:26;;;;;;;13.43;12.13;;;;;;;10.37;100.00;95819.00;5050945;27;105436;-61
2023/05/15 03:09:52;;;;;;;13.43;12.00;;;;;;;10.33;100.00;95825.88;5064559;27;102009;-61
2023/05/15 03:12:19;;;;;;;12.97;11.77;;;;;;;10.32;100.00;95817.13;5052191;27;105545;-61
2023/05/15 03:15:09;;;;;;;13.37;11.97;;;;;;;10.37;100.00;95819.00;5068885;27;105832;-61
2023/05/15 03:17:36;;;;;;;12.90;11.60;;;;;;;10.36;100.00;95817.41;5068478;27;101766;-61
2023/05/15 03:20:04;;;;;;;12.47;11.17;;;;;;;10.45;100.00;95813.97;5049941;27;103172;-61
2023/05/15 03:22:32;;;;;;;13.87;12.47;;;;;;;10.46;100.00;95817.41;5054924;27;101904;-61
2023/05/15 03:25:30;;;;;;;12.97;11.67;;;;;;;10.52;100.00;95816.38;5069419;27;105208;-61
2023/05/15 03:27:57;;;;;;;13.30;11.90;;;;;;;10.52;100.00;95811.84;5060798;27;103138;-61
2023/05/15 03:30:25;;;;;;;12.97;11.67;;;;;;;10.57;100.00;95811.06;5048898;27;101917;-61
2023/05/15 03:32:52;;;;;;;13.23;11.87;;;;;;;10.54;100.00;95808.91;5049705;27;105579;-61
2023/05/15 03:35:24;;;;;;;13.87;12.47;;;;;;;10.57;100.00;95811.06;5047989;27;103811;-61
2023/05/15 03:37:51;;;;;;;13.97;12.57;;;;;;;10.54;100.00;95814.22;5063014;27;102038;-61
2023/05/15 03:40:18;;;;;;;14.60;13.10;;;;;;;10.58;100.00;95815.31;5068685;27;104352;-61
2023/05/15 03:42:45;;;;;;;14.87;13.27;;;;;;;10.55;100.00;95818.47;5068254;27;102587;-61
2023/05/15 03:45:44;;;;;;;16.90;14.07;;;;;;;10.56;100.00;95809.44;5070647;27;102560;-61
2023/05/15 03:48:11;;;;;;;15.67;13.90;;;;;;;10.45;100.00;95813.16;5055733;27;103880;-61
2023/05/15 03:50:38;;;;;;;15.23;13.63;;;;;;;10.45;100.00;95815.81;5048473;27;102069;-61
2023/05/15 03:53:05;;;;;;;15.33;13.73;;;;;;;10.49;100.00;95812.38;5049504;27;103723;-61
2023/05/15 03:55:32;;;;;;;14.50;13.10;;;;;;;10.35;100.00;95819.25;5048127;27;104934;-61
2023/05/15 03:57:59;;;;;;;15.63;13.37;;;;;;;10.41;100.00;95814.75;5041643;27;101932;-61
2023/05/15 04:00:25;;;;;;;14.47;12.97;;;;;;;10.48;100.00;95816.06;5064826;27;105735;-61
2023/05/15 04:02:54;;;;;;;14.80;13.30;;;;;;;10.47;100.00;95819.78;5057577;27;102360;-61
2023/05/15 04:08:43;;;;;;;15.00;13.50;;;;;;;10.49;100.00;95824.84;5067901;27;104222;-61
2023/05/15 04:11:11;;;;;;;14.93;13.33;;;;;;;10.50;100.00;95824.59;5068062;27;102324;-61
2023/05/15 04:14:02;;;;;;;14.63;13.13;;;;;;;10.44;100.00;95832.81;5059965;27;104763;-61
2023/05/15 04:16:28;;;;;;;16.43;13.97;;;;;;;10.46;100.00;95826.19;5048516;27;105264;-61
2023/05/15 04:18:57;;;;;;;16.97;13.10;;;;;;;10.52;100.00;95825.13;5048042;27;102015;-61
2023/05/15 04:21:23;;;;;;;15.43;13.83;;;;;;;10.51;100.00;95825.38;5050137;27;104869;-61
2023/05/15 04:24:01;;;;;;;15.40;13.10;;;;;;;10.47;100.00;95829.66;5062765;27;105590;-60
2023/05/15 04:26:28;;;;;;;15.53;13.93;;;;;;;10.45;100.00;95834.41;5059786;27;102615;-60
2023/05/15 04:28:56;;;;;;;15.40;13.80;;;;;;;10.45;100.00;95827.25;5065417;27;102723;-60
2023/05/15 04:31:23;;;;;;;16.13;13.40;;;;;;;10.40;100.00;95823.75;5069506;27;102031;-61
2023/05/15 04:33:51;;;;;;;14.40;12.90;;;;;;;10.41;100.00;95836.78;5068966;27;103306;-61
2023/05/15 04:36:19;;;;;;;13.90;12.50;;;;;;;10.42;100.00;95833.06;5069302;27;102605;-61
2023/05/15 04:38:46;;;;;;;14.83;13.33;;;;;;;10.38;100.00;95829.38;5055333;27;102255;-60
2023/05/15 04:41:13;;;;;;;16.03;13.90;;;;;;;10.40;100.00;95835.22;5067918;27;105394;-59
2023/05/15 04:43:44;;;;;;;15.40;12.80;;;;;;;10.38;100.00;95841.84;5066944;27;105884;-60
2023/05/15 04:46:11;;;;;;;13.67;12.27;;;;;;;10.39;100.00;95838.13;5071272;27;101878;-59
2023/05/15 04:48:38;;;;;;;16.33;13.60;;;;;;;10.43;100.00;95841.84;5054453;27;102580;-59
2023/05/15 04:51:06;;;;;;;14.83;12.67;;;;;;;10.42;100.00;95837.59;5049074;27;101816;-59
2023/05/15 04:53:43;;;;;;;15.47;13.20;;;;;;;10.45;100.00;95840.53;5069217;27;102483;-59
2023/05/15 04:56:11;;;;;;;15.40;13.27;;;;;;;10.39;100.00;95841.59;5054135;27;103015;-59
2023/05/15 04:58:37;;;;;;;14.20;12.50;;;;;;;10.48;100.00;95841.88;5050244;27;102090;-59
2023/05/15 05:01:04;;;;;;;14.77;13.03;;;;;;;10.40;100.00;95845.03;5068200;27;104891;-59
2023/05/15 05:03:55;;;;;;;14.17;12.60;;;;;;;10.40;100.00;95845.03;5066420;27;105075;-59
2023/05/15 05:06:22;;;;;;;13.93;12.00;;;;;;;10.48;100.00;95852.50;5047546;27;101795;-59
2023/05/15 05:08:51;;;;;;;14.77;13.03;;;;;;;10.46;100.00;95844.00;5068682;27;104785;-59
2023/05/15 05:11:18;;;;;;;13.60;12.13;;;;;;;10.50;100.00;95845.06;5069593;27;101886;-59
2023/05/15 05:14:02;;;;;;;14.90;12.67;;;;;;;10.46;100.00;95854.63;5071001;27;105768;-60
2023/05/15 05:16:29;;;;;;;13.60;12.03;;;;;;;10.48;100.00;95852.50;5070748;27;105730;-59
2023/05/15 05:18:56;;;;;;;14.33;12.70;;;;;;;10.48;100.00;95853.28;5051073;27;102097;-59
2023/05/15 05:21:23;;;;;;;16.00;13.03;;;;;;;10.48;100.00;95858.59;5061063;27;105202;-60
2023/05/15 05:24:01;;;;;;;14.03;12.53;;;;;;;10.42;100.00;95861.53;5050308;27;105071;-60
2023/05/15 05:26:28;;;;;;;14.17;12.67;;;;;;;10.40;100.00;95861.78;5054984;27;102307;-60
2023/05/15 05:28:55;;;;;;;13.37;11.57;;;;;;;10.41;100.00;95860.72;5055124;27;105419;-60
2023/05/15 05:31:22;;;;;;;15.77;12.87;;;;;;;10.49;100.00;95864.72;5065429;27;103846;-60
2023/05/15 05:33:51;;;;;;;14.73;12.57;;;;;;;10.46;100.00;95866.06;5070790;27;105093;-60
2023/05/15 05:36:18;;;;;;;13.00;11.60;;;;;;;10.53;100.00;95869.25;5058829;27;105730;-61
2023/05/15 05:38:45;;;;;;;13.97;11.80;;;;;;;10.52;100.00;95867.66;5063721;27;102316;-61
2023/05/15 05:41:13;;;;;;;14.00;12.30;;;;;;;10.53;100.00;95865.81;5060308;27;104819;-61
2023/05/15 05:43:45;;;;;;;15.37;12.17;;;;;;;10.55;100.00;95869.00;5049842;27;105461;-61
2023/05/15 05:46:12;;;;;;;15.23;12.77;;;;;;;10.51;100.00;95868.72;5050470;27;101794;-61
2023/05/15 05:48:39;;;;;;;14.13;12.63;;;;;;;10.53;100.00;95879.09;5062110;27;104935;-60
2023/05/15 05:51:05;;;;;;;16.20;13.50;;;;;;;10.57;100.00;95877.53;5064063;27;105628;-60
2023/05/15 05:53:32;;;;;;;13.77;12.43;;;;;;;10.64;100.00;95878.06;5050082;27;105106;-61
2023/05/15 05:55:59;;;;;;;15.17;13.57;;;;;;;10.62;100.00;95869.53;5050935;27;103973;-61
2023/05/15 05:58:28;;;;;;;15.97;12.67;;;;;;;10.56;100.00;95876.72;5059799;27;101896;-61
2023/05/15 06:00:55;;;;;;;15.43;13.00;;;;;;;10.54;100.00;95883.34;5070706;27;105653;-61
2023/05/15 06:03:23;;;;;;;16.50;12.87;;;;;;;10.54;100.00;95883.34;5069492;27;103633;-61
2023/05/15 06:05:51;;;;;;;15.53;13.20;;;;;;;10.54;100.00;95878.84;5072428;27;101768;-60
2023/05/15 06:08:18;;;;;;;15.40;13.07;;;;;;;10.50;100.00;95880.44;5070321;27;104003;-61
2023/05/15 06:10:46;;;;;;;12.70;11.40;;;;;;;10.49;100.00;95878.03;5070156;27;105053;-61
2023/05/15 06:13:17;;;;;;;13.37;11.77;;;;;;;10.55;100.00;95884.94;5056649;27;102047;-60
2023/05/15 06:15:46;;;;;;;16.30;12.90;;;;;;;10.50;100.00;95895.56;5071609;27;103045;-60
2023/05/15 06:18:13;;;;;;;15.17;12.43;;;;;;;10.52;100.00;95890.81;5067831;27;102090;-60
2023/05/15 06:20:41;;;;;;;14.87;12.67;;;;;;;10.59;100.00;95892.16;5067834;27;104903;-60
2023/05/15 06:23:10;;;;;;;15.33;13.73;;;;;;;10.60;100.00;95896.41;5069374;27;103803;-60
2023/05/15 06:25:37;;;;;;;15.07;13.20;;;;;;;10.68;100.00;95900.41;5068888;27;104017;-60
2023/05/15 06:28:04;;;;;;;18.23;14.13;;;;;;;10.70;100.00;95900.94;5069754;27;105141;-61
2023/05/15 06:30:31;;;;;;;14.73;12.97;;;;;;;10.65;100.00;95900.94;5058960;27;105475;-61
2023/05/15 06:32:59;;;;;;;14.67;12.37;;;;;;;10.71;100.00;95905.19;5051309;27;101949;-62
2023/05/15 06:35:26;;;;;;;14.27;12.60;;;;;;;10.74;100.00;95904.69;5053607;27;105184;-61
2023/05/15 06:37:53;;;;;;;14.47;12.37;;;;;;;10.75;100.00;95908.94;5049652;27;102060;-60
2023/05/15 06:40:20;;;;;;;14.30;12.27;;;;;;;10.71;100.00;95906.00;5051661;27;104812;-60
2023/05/15 06:42:47;;;;;;;14.00;12.50;;;;;;;10.82;100.00;95909.47;5049117;27;105466;-60
2023/05/15 06:45:17;;;;;;;13.63;12.17;;;;;;;10.82;100.00;95912.13;5049720;27;101894;-60
2023/05/15 06:47:44;;;;;;;13.77;11.83;;;;;;;10.82;100.00;95907.63;5069924;27;104844;-61
2023/05/15 06:50:12;;;;;;;14.13;12.40;;;;;;;10.74;100.00;95913.44;5066534;27;105790;-61
2023/05/15 06:52:39;;;;;;;14.10;12.43;;;;;;;10.74;100.00;95910.78;5070103;27;101885;-61
2023/05/15 06:55:06;;;;;;;15.67;12.60;;;;;;;10.73;100.00;95911.03;5066926;27;103772;-61
2023/05/15 06:57:33;;;;;;;14.50;12.27;;;;;;;10.81;100.00;95915.88;5054006;27;102934;-61
2023/05/15 07:00:00;;;;;;;14.07;11.63;;;;;;;10.85;100.00;95916.94;5050732;27;102844;-60
2023/05/15 07:02:27;;;;;;;14.33;12.83;;;;;;;10.83;100.00;95919.03;5050253;27;103119;-59
2023/05/15 07:05:09;;;;;;;14.30;12.77;;;;;;;10.94;100.00;95916.16;5051687;27;102181;-59
2023/05/15 07:07:37;;;;;;;13.80;11.43;;;;;;;10.98;100.00;95916.41;5050974;27;101820;-60
2023/05/15 07:10:05;;;;;;;13.90;11.93;;;;;;;11.09;100.00;95918.03;5062265;27;102512;-61
2023/05/15 07:12:33;;;;;;;15.20;12.67;;;;;;;11.20;100.00;95924.97;5050481;27;101845;-61
2023/05/15 07:15:06;;;;;;;13.60;12.07;;;;;;;11.15;100.00;95920.44;5051374;27;102536;-62
2023/05/15 07:17:34;;;;;;;12.20;10.90;;;;;;;11.25;100.00;95916.97;5049840;27;102815;-61
2023/05/15 07:20:01;;;;;;;13.83;12.33;;;;;;;11.27;100.00;95925.50;5053688;27;102085;-61
2023/05/15 07:22:28;;;;;;;13.30;11.90;;;;;;;11.29;100.00;95921.50;5031380;27;106204;-60
2023/05/15 07:25:00;;;;;;;13.10;11.70;;;;;;;11.26;100.00;95923.91;5064246;27;102213;-60
2023/05/15 07:27:27;;;;;;;13.60;12.03;;;;;;;11.40;100.00;95930.31;5068631;27;105452;-60
2023/05/15 07:29:54;;;;;;;13.57;12.17;;;;;;;11.28;100.00;95922.56;5059098;27;104260;-60
2023/05/15 07:32:21;;;;;;;11.53;10.33;;;;;;;11.37;100.00;95926.31;5050149;27;102321;-61
2023/05/15 07:34:57;;;;;;;13.30;11.90;;;;;;;11.36;100.00;95929.22;5050282;27;102297;-60
2023/05/15 07:37:24;;;;;;;12.93;11.70;;;;;;;11.37;100.00;95926.31;5048400;27;105336;-60
2023/05/15 07:39:51;;;;;;;12.37;11.07;;;;;;;11.43;100.00;95927.91;5058216;27;102176;-60
2023/05/15 07:42:20;;;;;;;13.57;12.17;;;;;;;11.41;100.00;95930.06;5053061;27;102856;-60
2023/05/15 07:44:55;;;;;;;13.20;11.30;;;;;;;11.48;100.00;95927.09;5051108;27;101895;-60
2023/05/15 07:47:22;;;;;;;12.70;11.40;;;;;;;11.57;100.00;95931.66;5069661;27;102555;-60
2023/05/15 07:49:49;;;;;;;13.17;11.73;;;;;;;11.56;100.00;95930.03;5069473;27;103109;-61
2023/05/15 07:52:16;;;;;;;13.33;11.47;;;;;;;11.66;100.00;95923.94;5068959;27;101903;-60
2023/05/15 07:55:09;;;;;;;12.27;11.07;;;;;;;11.73;100.00;95927.91;5057409;27;105224;-60
2023/05/15 07:57:39;;;;;;;12.03;10.83;;;;;;;11.80;100.00;95924.97;5069737;27;102697;-60
2023/05/15 08:00:09;;;;;;;12.77;11.47;;;;;;;11.87;100.00;95928.97;5068426;27;101840;-60
2023/05/15 08:02:39;;;;;;;13.03;11.57;;;;;;;11.96;100.00;95924.69;5055002;27;103363;-60
2023/05/15 08:05:18;;;;;;;13.63;11.97;;;;;;;11.98;100.00;95922.53;5065865;27;102278;-60
2023/05/15 08:07:45;;;;;;;14.83;12.60;;;;;;;12.13;100.00;95927.84;5069761;27;102553;-60
2023/05/15 08:10:12;;;;;;;16.07;12.83;;;;;;;12.20;100.00;95930.22;5069450;27;102777;-60
2023/05/15 08:12:45;;;;;;;14.40;12.90;;;;;;;12.23;100.00;95929.69;5055382;27;101825;-60
2023/05/15 08:15:22;;;;;;;15.63;12.70;;;;;;;12.18;100.00;95927.84;5062042;27;103011;-60
2023/05/15 08:17:49;;;;;;;14.60;12.30;;;;;;;12.24;100.00;95934.75;5067173;27;104023;-60
2023/05/15 08:20:17;;;;;;;14.47;12.97;;;;;;;12.22;100.00;95930.75;5070021;27;101672;-61
2023/05/15 08:22:44;;;;;;;13.83;12.43;;;;;;;12.50;100.00;95930.94;5068185;27;102315;-60
2023/05/15 08:25:52;;;;;;;13.63;12.33;;;;;;;12.27;100.00;95944.06;5061293;27;102588;-60
2023/05/15 08:28:20;;;;;;;13.23;11.83;;;;;;;12.28;100.00;95933.13;5049064;27;102090;-61
2023/05/15 08:30:47;;;;;;;14.30;11.17;;;;;;;12.10;100.00;95936.38;5064783;27;102630;-61
2023/05/15 08:33:25;;;;;;;12.40;11.20;;;;;;;12.40;100.00;95927.47;5067858;27;101924;-60
2023/05/15 08:35:52;;;;;;;12.30;11.07;;;;;;;12.57;100.00;95930.59;5067617;27;103526;-60
2023/05/15 08:38:19;;;;;;;12.37;11.17;;;;;;;12.33;100.00;95925.09;5057697;27;102604;-60
2023/05/15 08:40:47;;;;;;;13.07;11.23;;;;;;;12.36;100.00;95934.41;5068190;27;101972;-60
2023/05/15 08:43:18;;;;;;;12.67;10.87;;;;;;;12.59;100.00;95920.47;5069001;27;102522;-60
2023/05/15 08:45:47;;;;;;;11.90;10.80;;;;;;;12.87;100.00;95923.25;5068411;27;105190;-60
2023/05/15 08:48:19;;;;;;;11.20;10.10;;;;;;;12.86;100.00;95918.22;5074697;27;101920;-60
2023/05/15 08:50:47;;;;;;;11.30;10.20;;;;;;;12.94;100.00;95921.09;5052017;27;105484;-60
2023/05/15 08:53:14;;;;;;;10.20;9.30;;;;;;;13.23;100.00;95924.66;5053634;27;102306;-60
2023/05/15 08:55:42;;;;;;;11.30;10.20;;;;;;;13.32;100.00;95916.88;5070831;27;102488;-60
2023/05/15 08:58:09;;;;;;;11.37;10.27;;;;;;;13.44;100.00;95917.28;5057160;27;105241;-60
2023/05/15 09:00:36;;;;;;;11.10;8.97;;;;;;;12.97;100.00;95914.44;5053603;27;101852;-59
2023/05/15 09:03:24;;;;;;;9.37;8.53;;;;;;;13.33;100.00;95921.13;5052264;27;104879;-59
2023/05/15 09:05:52;;;;;;;10.07;9.17;;;;;;;13.16;100.00;95918.03;5053128;27;102738;-60
2023/05/15 09:08:21;;;;;;;10.40;9.40;;;;;;;13.67;100.00;95912.03;5067216;27;102281;-60
2023/05/15 09:10:49;;;;;;;10.20;9.30;;;;;;;13.95;100.00;95908.53;5057945;27;104838;-60
2023/05/15 09:13:25;;;;;;;8.80;7.80;;;;;;;13.58;100.00;95910.25;5052107;27;101922;-60
2023/05/15 09:15:52;;;;;;;9.83;8.77;;;;;;;13.85;100.00;95903.28;5053454;27;102824;-60
2023/05/15 09:18:20;;;;;;;9.33;8.43;;;;;;;14.25;100.00;95907.47;5051260;27;103824;-61
2023/05/15 09:20:48;;;;;;;8.63;7.83;;;;;;;14.42;100.00;95899.78;5054101;27;102040;-61
2023/05/15 09:23:24;;;;;;;20.90;16.67;;;;;;;14.52;100.00;95899.66;5071904;27;103049;-61
2023/05/15 09:25:55;;;;;;;10.13;9.13;;;;;;;14.44;100.00;95898.41;5068725;27;103954;-60
2023/05/15 09:28:28;;;;;;;7.73;7.03;;;;;;;14.18;100.00;95882.91;5051204;27;102189;-60
2023/05/15 09:31:00;;;;;;;9.10;8.30;;;;;;;14.03;100.00;95886.56;5055284;27;102806;-60
2023/05/15 09:33:32;;;;;;;7.23;6.63;;;;;;;13.54;100.00;95877.16;5063846;27;103251;-60
2023/05/15 09:36:00;;;;;;;8.87;8.07;;;;;;;13.74;100.00;95888.44;5053167;27;102007;-60
2023/05/15 09:38:28;;;;;;;14.13;12.83;;;;;;;13.75;100.00;95890.06;5052303;27;102581;-60
2023/05/15 09:41:02;;;;;;;9.23;8.43;;;;;;;13.64;100.00;95885.06;5054243;27;102091;-60
2023/05/15 09:43:58;;;;;;;7.70;6.77;;;;;;;13.61;100.00;95889.09;5054761;27;102397;-60
2023/05/15 09:46:26;;;;;;;7.50;6.83;;;;;;;13.68;100.00;95894.91;5061148;27;102689;-60
2023/05/15 09:48:55;;;;;;;7.43;6.63;;;;;;;13.83;100.00;95902.78;5069790;27;103220;-60
2023/05/15 09:51:23;;;;;;;7.53;6.80;;;;;;;13.98;100.00;95899.16;5052862;27;102896;-60
2023/05/15 09:53:55;;;;;;;7.37;6.67;;;;;;;13.98;100.00;95888.47;5050637;27;105423;-60
2023/05/15 09:56:22;;;;;;;6.90;6.30;;;;;;;14.23;100.00;95885.56;5062788;27;101921;-60
2023/05/15 09:58:54;;;;;;;7.43;6.33;;;;;;;14.53;100.00;95888.66;5067525;27;103159;-60
2023/05/15 10:01:21;;;;;;;6.37;5.77;;;;;;;14.68;100.00;95877.78;5073020;27;101771;-60
2023/05/15 10:03:58;;;;;;;6.07;5.57;;;;;;;14.85;100.00;95877.28;5067365;27;102873;-60
2023/05/15 10:06:27;;;;;;;6.80;6.20;;;;;;;15.07;100.00;95874.81;5054029;27;102471;-60
2023/05/15 10:08:55;;;;;;;6.60;5.90;;;;;;;15.27;100.00;95869.94;5071661;27;102452;-61
2023/05/15 10:11:24;;;;;;;5.60;5.10;;;;;;;14.63;100.00;95858.31;5071744;27;105338;-61
2023/05/15 10:13:55;;;;;;;6.57;5.97;;;;;;;14.68;100.00;95861.72;5065500;27;105875;-60
2023/05/15 10:16:23;;;;;;;6.23;5.37;;;;;;;14.79;100.00;95852.47;5054515;27;102143;-60
2023/05/15 10:18:51;;;;;;;5.97;5.47;;;;;;;14.97;100.00;95858.88;5051876;27;102591;-60
2023/05/15 10:21:20;;;;;;;5.23;4.83;;;;;;;14.67;100.00;95856.66;5052248;27;101870;-60
2023/05/15 10:24:02;;;;;;;5.40;4.70;;;;;;;14.65;100.00;95846.22;5051006;27;105424;-60
2023/05/15 10:26:37;;;;;;;4.27;3.97;;;;;;;15.02;100.00;95840.06;5050308;27;105428;-60
2023/05/15 10:29:06;;;;;;;3.30;3.10;;;;;;;15.55;100.00;95844.06;5066506;27;101991;-60
2023/05/15 10:31:34;;;;;;;3.87;3.13;;;;;;;15.82;100.00;95842.25;5071065;27;102927;-60
2023/05/15 10:34:12;;;;;;;2.97;2.77;;;;;;;15.22;100.00;95834.41;5072027;27;102527;-60
2023/05/15 10:36:38;;;;;;;2.00;1.90;;;;;;;15.48;100.00;95828.34;5072738;27;101776;-60
2023/05/15 10:39:08;;;;;;;2.20;2.00;;;;;;;15.45;100.00;95822.78;5055462;27;102806;-61
2023/05/15 10:41:37;;;;;;;2.00;1.90;;;;;;;15.05;100.00;95828.78;5051619;27;101848;-61
2023/05/15 10:44:07;;;;;;;1.70;1.60;;;;;;;15.43;100.00;95824.97;5050823;27;105118;-61
2023/05/15 10:46:36;;;;;;;2.77;2.20;;;;;;;15.49;100.00;95821.13;5051435;27;102718;-61
2023/05/15 10:49:03;;;;;;;2.40;2.20;;;;;;;15.73;100.00;95819.88;5051801;27;101815;-61
2023/05/15 10:51:32;;;;;;;2.93;2.70;;;;;;;15.68;100.00;95824.53;5061815;27;103250;-61
2023/05/15 10:54:04;;;;;;;3.03;2.83;;;;;;;15.95;100.00;95819.19;5070220;27;105262;-61
2023/05/15 10:56:34;;;;;;;3.63;3.27;;;;;;;15.95;100.00;95825.34;5070701;27;102174;-61
2023/05/15 10:59:06;;;;;;;3.10;2.90;;;;;;;15.83;100.00;95825.06;5072065;27;102358;-61
2023/05/15 11:01:34;;;;;;;3.13;2.83;;;;;;;15.87;100.00;95817.22;5075454;27;102592;-60
2023/05/15 11:04:17;;;;;;;2.83;2.10;;;;;;;15.94;100.00;95805.00;5072237;27;102582;-61
2023/05/15 11:06:46;;;;;;;1.90;1.80;;;;;;;16.25;100.00;95805.19;5071590;27;102639;-61
2023/05/15 11:09:37;;;;;;;2.13;1.50;;;;;;;16.04;100.00;95788.72;5067922;27;102235;-62
2023/05/15 11:12:07;;;;;;;1.67;1.40;;;;;;;16.36;100.00;95787.78;5070594;27;105063;-61
2023/05/15 11:14:38;;;;;;;1.40;1.30;;;;;;;16.21;100.00;95791.59;5052756;27;106085;-61
2023/05/15 11:17:07;;;;;;;1.30;1.23;;;;;;;16.05;100.00;95794.88;5050092;27;102402;-61
2023/05/15 11:19:50;;;;;;;1.60;1.50;;;;;;;15.45;100.00;95801.34;5050033;27;105204;-61
2023/05/15 11:22:19;;;;;;;1.87;1.77;;;;;;;15.16;100.00;95806.13;5051755;27;102873;-61
2023/05/15 11:24:55;;;;;;;1.70;1.60;;;;;;;15.13;100.00;95806.69;5073855;27;101981;-61
2023/05/15 11:27:25;;;;;;;1.70;1.60;;;;;;;15.65;100.00;95801.00;5069215;27;105756;-60